createdAt,value
2023-06-10T00:02:56.944Z,5.25
2023-06-10T00:06:00.821Z,5.28
2023-06-10T00:09:11.245Z,4.78
2023-06-10T00:12:16.170Z,4.70
2023-06-10T00:15:20.049Z,4.95
2023-06-10T00:18:23.792Z,5.10
2023-06-10T00:21:27.670Z,4.15
2023-06-10T00:24:33.091Z,4.70
2023-06-10T00:27:37.351Z,4.85
2023-06-10T00:30:41.217Z,4.25
2023-06-10T00:33:47.649Z,4.60
2023-06-10T00:36:51.813Z,4.75
2023-06-10T00:39:56.955Z,4.40
2023-06-10T00:43:00.965Z,4.30
2023-06-10T00:46:04.996Z,4.50
2023-06-10T00:49:09.404Z,4.70
2023-06-10T00:52:17.166Z,4.40
2023-06-10T00:55:22.622Z,4.70
2023-06-10T00:58:26.900Z,4.30
2023-06-10T01:01:32.090Z,4.57
2023-06-10T01:04:39.102Z,4.10
2023-06-10T01:07:50.060Z,4.78
2023-06-10T01:11:00.557Z,4.30
2023-06-10T01:14:08.854Z,4.65
2023-06-10T01:17:12.962Z,4.93
2023-06-10T01:20:18.549Z,5.20
2023-06-10T01:23:23.821Z,5.00
2023-06-10T01:26:33.562Z,4.93
2023-06-10T01:29:44.169Z,5.05
2023-06-10T01:32:51.259Z,4.72
2023-06-10T01:35:56.498Z,4.90
2023-06-10T01:39:03.184Z,5.03
2023-06-10T01:42:08.333Z,5.05
2023-06-10T01:45:13.808Z,4.82
2023-06-10T01:48:18.668Z,4.60
2023-06-10T01:51:22.702Z,4.35
2023-06-10T01:54:28.570Z,5.00
2023-06-10T01:57:32.649Z,4.95
2023-06-10T02:00:36.814Z,5.10
2023-06-10T02:03:41.021Z,4.65
2023-06-10T02:06:46.680Z,5.15
2023-06-10T02:09:52.362Z,4.13
2023-06-10T02:12:56.571Z,4.65
2023-06-10T02:16:01.358Z,4.80
2023-06-10T02:19:08.041Z,5.50
2023-06-10T02:22:12.734Z,4.78
2023-06-10T02:25:18.414Z,4.28
2023-06-10T02:28:22.420Z,4.75
2023-06-10T02:31:27.052Z,5.07
2023-06-10T02:34:32.527Z,4.65
2023-06-10T02:37:37.681Z,5.38
2023-06-10T02:40:43.566Z,4.93
2023-06-10T02:43:49.407Z,5.32
2023-06-10T02:46:54.113Z,4.75
2023-06-10T02:49:58.745Z,4.82
2023-06-10T02:53:03.101Z,4.60
2023-06-10T02:56:13.091Z,4.78
2023-06-10T02:59:17.580Z,5.03
2023-06-10T03:02:21.930Z,4.22
2023-06-10T03:05:29.364Z,5.28
2023-06-10T03:08:36.541Z,4.82
2023-06-10T03:11:46.732Z,5.10
2023-06-10T03:14:51.121Z,4.90
2023-06-10T03:17:55.914Z,5.47
2023-06-10T03:21:01.552Z,5.47
2023-06-10T03:24:06.739Z,5.10
2023-06-10T03:27:15.000Z,5.13
2023-06-10T03:30:22.181Z,4.50
2023-06-10T03:33:27.542Z,4.55
2023-06-10T03:36:31.951Z,5.53
2023-06-10T03:39:36.288Z,5.82
2023-06-10T03:42:42.092Z,6.45
2023-06-10T03:45:47.090Z,6.00
2023-06-10T03:48:51.250Z,6.22
2023-06-10T03:51:56.517Z,6.40
2023-06-10T03:55:00.934Z,5.88
2023-06-10T03:58:07.103Z,5.70
2023-06-10T04:01:12.073Z,5.43
2023-06-10T04:04:19.239Z,5.45
2023-06-10T04:07:25.180Z,5.03
2023-06-10T04:10:29.197Z,5.25
2023-06-10T04:13:34.753Z,5.85
2023-06-10T04:16:39.840Z,5.63
2023-06-10T04:19:44.120Z,6.40
2023-06-10T04:22:48.289Z,6.15
2023-06-10T04:25:53.647Z,5.88
2023-06-10T04:28:59.594Z,6.00
2023-06-10T04:32:03.844Z,5.80
2023-06-10T04:35:11.595Z,5.30
2023-06-10T04:38:16.152Z,5.85
2023-06-10T04:41:21.079Z,5.85
2023-06-10T04:44:26.678Z,5.43
2023-06-10T04:47:34.779Z,5.60
2023-06-10T04:50:39.050Z,5.15
2023-06-10T04:53:43.008Z,6.22
2023-06-10T04:56:47.113Z,6.32
2023-06-10T04:59:52.973Z,5.95
2023-06-10T05:02:57.644Z,6.53
2023-06-10T05:06:02.018Z,5.97
2023-06-10T05:09:06.768Z,6.03
2023-06-10T05:12:11.877Z,6.50
2023-06-10T05:15:17.588Z,5.95
2023-06-10T05:18:21.733Z,6.22
2023-06-10T05:21:26.033Z,7.03
2023-06-10T05:24:30.189Z,6.55
2023-06-10T05:27:34.458Z,7.07
2023-06-10T05:30:40.494Z,8.43
2023-06-10T05:33:44.724Z,7.25
2023-06-10T05:36:48.857Z,8.35
2023-06-10T05:39:53.036Z,7.10
2023-06-10T05:42:57.295Z,8.35
2023-06-10T05:46:03.116Z,7.10
2023-06-10T05:49:07.250Z,6.40
2023-06-10T05:52:11.661Z,6.72
2023-06-10T05:55:15.862Z,5.95
2023-06-10T05:58:20.129Z,6.00
2023-06-10T06:01:26.307Z,6.53
2023-06-10T06:04:30.568Z,5.30
2023-06-10T06:07:35.934Z,5.78
2023-06-10T06:10:40.073Z,6.07
2023-06-10T06:13:44.200Z,6.18
2023-06-10T06:16:49.893Z,5.90
2023-06-10T06:19:54.140Z,5.72
2023-06-10T06:22:58.368Z,6.10
2023-06-10T06:26:03.409Z,6.10
2023-06-10T06:29:07.571Z,7.25
2023-06-10T06:32:13.370Z,6.70
2023-06-10T06:35:17.476Z,6.18
2023-06-10T06:38:21.746Z,6.13
2023-06-10T06:41:27.098Z,7.10
2023-06-10T06:44:31.310Z,6.03
2023-06-10T06:47:37.052Z,6.90
2023-06-10T06:50:43.254Z,6.10
2023-06-10T06:53:47.504Z,6.47
2023-06-10T06:56:51.793Z,6.93
2023-06-10T06:59:55.867Z,7.47
2023-06-10T07:03:01.797Z,8.93
2023-06-10T07:06:06.459Z,6.20
2023-06-10T07:09:11.325Z,6.95
2023-06-10T07:12:15.520Z,8.82
2023-06-10T07:15:19.810Z,6.43
2023-06-10T07:18:25.465Z,6.68
2023-06-10T07:21:30.178Z,6.40
2023-06-10T07:24:34.209Z,6.65
2023-06-10T07:27:38.802Z,6.57
2023-06-10T07:30:43.115Z,5.97
2023-06-10T07:33:50.007Z,6.50
2023-06-10T07:36:54.101Z,6.32
2023-06-10T07:39:59.165Z,6.30
2023-06-10T07:43:03.428Z,6.70
2023-06-10T07:46:08.028Z,5.82
2023-06-10T07:49:13.773Z,6.30
2023-06-10T07:52:18.133Z,6.47
2023-06-10T07:55:22.516Z,6.80
2023-06-10T07:58:26.704Z,5.80
2023-06-10T08:01:31.664Z,6.38
2023-06-10T08:04:37.828Z,6.82
2023-06-10T08:07:43.137Z,5.60
2023-06-10T08:10:48.281Z,5.18
2023-06-10T08:13:52.425Z,5.30
2023-06-10T08:16:56.764Z,4.72
2023-06-10T08:20:03.114Z,5.28
2023-06-10T08:23:07.270Z,4.80
2023-06-10T08:26:11.572Z,4.53
2023-06-10T08:29:16.028Z,5.05
2023-06-10T08:32:20.272Z,4.50
2023-06-10T08:35:26.182Z,4.45
2023-06-10T08:38:30.431Z,4.63
2023-06-10T08:41:39.714Z,4.72
2023-06-10T08:44:45.083Z,5.20
2023-06-10T08:47:53.430Z,4.82
2023-06-10T08:51:00.694Z,4.43
2023-06-10T08:54:08.553Z,4.93
2023-06-10T08:57:12.973Z,5.03
2023-06-10T09:00:18.744Z,4.45
2023-06-10T09:03:25.676Z,4.63
2023-06-10T09:06:31.752Z,4.20
2023-06-10T09:09:38.084Z,4.80
2023-06-10T09:12:42.265Z,4.70
2023-06-10T09:15:47.306Z,4.47
2023-06-10T09:18:56.612Z,4.45
2023-06-10T09:22:02.423Z,4.40
2023-06-10T09:25:09.521Z,3.72
2023-06-10T09:28:16.712Z,3.92
2023-06-10T09:31:23.321Z,4.10
2023-06-10T09:34:29.193Z,4.38
2023-06-10T09:37:34.893Z,3.80
2023-06-10T09:40:52.565Z,4.07
2023-06-10T09:43:56.813Z,4.40
2023-06-10T09:47:01.317Z,4.18
2023-06-10T09:50:07.296Z,4.60
2023-06-10T09:53:14.935Z,3.90
2023-06-10T09:56:19.224Z,4.63
2023-06-10T09:59:33.466Z,5.30
2023-06-10T10:02:48.948Z,4.80
2023-06-10T10:06:02.166Z,6.13
2023-06-10T10:09:08.969Z,5.97
2023-06-10T10:12:14.541Z,7.00
2023-06-10T10:15:20.442Z,4.85
2023-06-10T10:18:30.355Z,5.75
2023-06-10T10:21:46.426Z,4.55
2023-06-10T10:24:54.292Z,4.53
2023-06-10T10:28:02.196Z,4.82
2023-06-10T10:31:13.348Z,5.25
2023-06-10T10:34:22.025Z,4.55
2023-06-10T10:37:26.976Z,4.47
2023-06-10T10:40:34.116Z,4.20
2023-06-10T10:43:38.743Z,4.75
2023-06-10T10:46:46.764Z,4.45
2023-06-10T10:49:54.153Z,4.72
2023-06-10T10:53:02.488Z,4.10
2023-06-10T10:56:12.190Z,4.53
2023-06-10T10:59:21.315Z,4.18
2023-06-10T11:02:44.693Z,4.55
2023-06-10T11:05:51.208Z,4.00
2023-06-10T11:08:56.203Z,4.20
2023-06-10T11:12:03.370Z,4.20
2023-06-10T11:15:08.608Z,4.20
2023-06-10T11:18:22.473Z,4.20
2023-06-10T11:21:29.144Z,3.42
2023-06-10T11:24:35.459Z,3.78
2023-06-10T11:27:42.467Z,3.30
2023-06-10T11:30:46.792Z,4.32
2023-06-10T11:33:54.945Z,4.07
2023-06-10T11:37:00.812Z,3.85
2023-06-10T11:40:05.944Z,4.22
2023-06-10T11:43:11.580Z,4.63
2023-06-10T11:46:16.957Z,4.15
2023-06-10T11:49:23.226Z,4.00
2023-06-10T11:52:30.614Z,4.57
2023-06-10T11:55:48.228Z,3.97
2023-06-10T11:58:58.647Z,3.70
2023-06-10T12:02:03.040Z,4.25
2023-06-10T12:05:13.995Z,4.60
2023-06-10T12:08:18.266Z,3.42
2023-06-10T12:11:24.532Z,4.00
2023-06-10T12:14:56.708Z,3.97
2023-06-10T12:18:01.258Z,3.85
2023-06-10T12:21:06.057Z,3.65
2023-06-10T12:24:12.602Z,3.67
2023-06-10T12:27:16.853Z,3.90
2023-06-10T12:30:23.897Z,4.03
2023-06-10T12:33:28.025Z,4.25
2023-06-10T12:36:33.932Z,3.80
2023-06-10T12:39:38.096Z,4.18
2023-06-10T12:42:43.250Z,3.75
2023-06-10T12:45:48.983Z,4.32
2023-06-10T12:48:55.700Z,4.57
2023-06-10T12:51:59.731Z,5.05
2023-06-10T12:55:05.655Z,4.70
2023-06-10T12:58:09.877Z,4.82
2023-06-10T13:01:15.899Z,4.60
2023-06-10T13:04:20.156Z,4.50
2023-06-10T13:07:24.982Z,4.78
2023-06-10T13:10:29.315Z,4.45
2023-06-10T13:13:33.579Z,4.57
2023-06-10T13:16:39.677Z,4.30
2023-06-10T13:19:43.976Z,4.80
2023-06-10T13:22:49.138Z,4.68
2023-06-10T13:25:53.387Z,3.83
2023-06-10T13:28:57.633Z,4.05
2023-06-10T13:32:03.269Z,4.63
2023-06-10T13:35:09.160Z,4.18
2023-06-10T13:38:13.995Z,4.28
2023-06-10T13:41:18.491Z,4.18
2023-06-10T13:44:22.630Z,4.13
2023-06-10T13:47:28.342Z,4.43
2023-06-10T13:50:32.633Z,3.95
2023-06-10T13:53:36.841Z,4.05
2023-06-10T13:56:41.043Z,4.20
2023-06-10T13:59:45.354Z,4.03
2023-06-10T14:02:51.151Z,3.85
2023-06-10T14:05:55.364Z,4.13
2023-06-10T14:08:59.699Z,4.22
2023-06-10T14:12:05.029Z,4.10
2023-06-10T14:15:10.461Z,3.92
2023-06-10T14:18:16.380Z,4.65
2023-06-10T14:21:20.596Z,4.22
2023-06-10T14:24:25.162Z,4.32
2023-06-10T14:27:29.350Z,3.92
2023-06-10T14:30:33.530Z,4.18
2023-06-10T14:33:39.133Z,4.13
2023-06-10T14:36:43.283Z,4.18
2023-06-10T14:39:47.421Z,3.53
2023-06-10T14:42:51.588Z,4.43
2023-06-10T14:45:57.369Z,4.53
2023-06-10T14:49:03.982Z,4.00
2023-06-10T14:52:08.632Z,4.30
2023-06-10T14:55:12.934Z,3.75
2023-06-10T14:58:17.584Z,3.92
2023-06-10T15:01:21.737Z,4.15
2023-06-10T15:04:27.513Z,3.92
2023-06-10T15:07:31.847Z,3.50
2023-06-10T15:10:36.032Z,3.85
2023-06-10T15:13:40.161Z,3.78
2023-06-10T15:16:44.333Z,3.70
2023-06-10T15:19:50.054Z,3.53
2023-06-10T15:22:55.191Z,3.50
2023-06-10T15:25:59.354Z,3.28
2023-06-10T15:29:05.861Z,3.28
2023-06-10T15:32:18.338Z,3.42
2023-06-10T15:35:25.006Z,3.45
2023-06-10T15:38:29.305Z,3.45
2023-06-10T15:41:33.458Z,3.70
2023-06-10T15:44:37.658Z,3.55
2023-06-10T15:47:42.976Z,4.30
2023-06-10T15:50:48.771Z,3.80
2023-06-10T15:53:53.036Z,3.58
2023-06-10T15:56:57.105Z,3.58
2023-06-10T16:00:01.401Z,3.40
2023-06-10T16:03:09.026Z,4.20
2023-06-10T16:06:14.688Z,4.35
2023-06-10T16:09:19.205Z,3.90
2023-06-10T16:12:23.516Z,4.22
2023-06-10T16:15:27.629Z,7.93
2023-06-10T16:18:31.894Z,3.97
2023-06-10T16:21:41.223Z,5.78
2023-06-10T16:24:45.484Z,5.38
2023-06-10T16:27:49.541Z,4.60
2023-06-10T16:30:53.846Z,4.07
2023-06-10T16:33:58.113Z,12.18
2023-06-10T16:37:04.321Z,18.80
2023-06-10T16:40:09.675Z,4.03
2023-06-10T16:43:13.862Z,6.22
2023-06-10T16:46:18.240Z,5.13
2023-06-10T16:49:22.680Z,4.68
2023-06-10T16:52:28.283Z,5.40
2023-06-10T16:55:32.473Z,6.05
2023-06-10T16:58:36.642Z,4.55
2023-06-10T17:01:40.888Z,9.05
2023-06-10T17:04:45.071Z,4.82
2023-06-10T17:07:51.072Z,8.60
2023-06-10T17:10:55.210Z,5.75
2023-06-10T17:13:59.467Z,4.28
2023-06-10T17:17:04.526Z,4.97
2023-06-10T17:20:09.795Z,4.65
2023-06-10T17:23:15.601Z,5.45
2023-06-10T17:26:19.867Z,4.13
2023-06-10T17:29:24.287Z,4.32
2023-06-10T17:32:28.583Z,4.35
2023-06-10T17:35:32.798Z,4.57
2023-06-10T17:38:38.508Z,4.85
2023-06-10T17:41:42.575Z,4.95
2023-06-10T17:44:46.727Z,4.72
2023-06-10T17:47:51.060Z,5.82
2023-06-10T17:50:55.299Z,3.95
2023-06-10T17:54:00.929Z,4.50
2023-06-10T17:57:05.343Z,4.05
2023-06-10T18:00:10.648Z,3.63
2023-06-10T18:03:16.886Z,3.38
2023-06-10T18:06:21.161Z,4.05
2023-06-10T18:09:27.357Z,3.55
2023-06-10T18:12:31.477Z,3.35
2023-06-10T18:15:37.750Z,3.50
2023-06-10T18:18:44.077Z,3.58
2023-06-10T18:21:48.062Z,4.32
2023-06-10T18:24:53.776Z,3.63
2023-06-10T18:27:57.926Z,4.00
2023-06-10T18:31:03.276Z,3.90
2023-06-10T18:34:07.473Z,4.22
2023-06-10T18:37:11.677Z,4.30
2023-06-10T18:40:19.320Z,4.60
2023-06-10T18:43:23.522Z,3.78
2023-06-10T18:46:27.769Z,3.97
2023-06-10T18:49:32.058Z,3.63
2023-06-10T18:52:36.298Z,4.00
2023-06-10T18:55:41.906Z,3.78
2023-06-10T18:58:48.041Z,4.28
2023-06-10T19:01:53.166Z,4.28
2023-06-10T19:04:57.278Z,4.43
2023-06-10T19:08:02.162Z,4.53
2023-06-10T19:11:09.020Z,4.15
2023-06-10T19:14:13.531Z,4.28
2023-06-10T19:17:17.986Z,4.45
2023-06-10T19:20:22.456Z,3.90
2023-06-10T19:23:26.736Z,4.35
2023-06-10T19:26:32.593Z,4.78
2023-06-10T19:29:36.756Z,4.78
2023-06-10T19:32:41.219Z,4.72
2023-06-10T19:35:45.598Z,4.88
2023-06-10T19:38:49.833Z,4.78
2023-06-10T19:41:55.504Z,4.85
2023-06-10T19:44:59.587Z,5.50
2023-06-10T19:48:03.975Z,5.53
2023-06-10T19:51:08.253Z,4.70
2023-06-10T19:54:12.378Z,4.25
2023-06-10T19:57:18.144Z,4.43
2023-06-10T20:00:22.306Z,4.90
2023-06-10T20:03:26.659Z,4.90
2023-06-10T20:06:30.904Z,5.13
2023-06-10T20:09:36.135Z,4.03
2023-06-10T20:12:41.967Z,4.07
2023-06-10T20:15:46.139Z,3.80
2023-06-10T20:18:53.952Z,4.25
2023-06-10T20:21:58.132Z,3.75
2023-06-10T20:25:02.548Z,4.05
2023-06-10T20:28:08.691Z,4.78
2023-06-10T20:31:12.875Z,4.00
2023-06-10T20:34:17.090Z,4.25
2023-06-10T20:37:21.307Z,4.50
2023-06-10T20:40:25.534Z,4.20
2023-06-10T20:43:31.192Z,4.63
2023-06-10T20:46:35.483Z,4.78
2023-06-10T20:49:39.649Z,4.07
2023-06-10T20:52:43.843Z,4.50
2023-06-10T20:55:48.130Z,3.85
2023-06-10T20:58:53.806Z,4.10
2023-06-10T21:01:58.083Z,4.50
2023-06-10T21:05:02.440Z,4.38
2023-06-10T21:08:07.657Z,4.00
2023-06-10T21:11:11.967Z,4.10
2023-06-10T21:14:17.540Z,4.45
2023-06-10T21:17:21.839Z,3.55
2023-06-10T21:20:25.956Z,4.25
2023-06-10T21:23:30.176Z,4.47
2023-06-10T21:26:36.167Z,3.47
2023-06-10T21:29:42.381Z,3.70
2023-06-10T21:32:47.226Z,3.97
2023-06-10T21:35:51.643Z,4.10
2023-06-10T21:38:55.897Z,3.72
2023-06-10T21:42:00.077Z,3.70
2023-06-10T21:45:06.341Z,3.72
2023-06-10T21:48:11.930Z,3.63
2023-06-10T21:51:16.218Z,3.70
2023-06-10T21:54:20.597Z,3.80
2023-06-10T21:57:25.463Z,3.90
2023-06-10T22:00:31.183Z,3.70
2023-06-10T22:03:35.360Z,3.85
2023-06-10T22:06:39.607Z,3.42
2023-06-10T22:09:49.440Z,3.63
2023-06-10T22:12:53.655Z,3.40
2023-06-10T22:15:59.269Z,3.60
2023-06-10T22:19:03.468Z,4.15
2023-06-10T22:22:08.652Z,4.03
2023-06-10T22:25:12.910Z,4.05
2023-06-10T22:28:17.418Z,4.40
2023-06-10T22:31:23.143Z,4.68
2023-06-10T22:34:27.435Z,3.78
2023-06-10T22:37:31.555Z,4.90
2023-06-10T22:40:35.783Z,3.97
2023-06-10T22:43:39.843Z,4.45
2023-06-10T22:46:45.544Z,4.15
2023-06-10T22:49:49.734Z,4.63
2023-06-10T22:52:54.932Z,4.95
2023-06-10T22:55:59.152Z,4.60
2023-06-10T22:59:03.984Z,4.60
2023-06-10T23:02:09.880Z,4.30
2023-06-10T23:05:14.261Z,3.83
2023-06-10T23:08:18.547Z,4.13
2023-06-10T23:11:22.641Z,4.53
2023-06-10T23:14:26.858Z,4.90
2023-06-10T23:17:32.496Z,5.05
2023-06-10T23:20:37.096Z,4.80
2023-06-10T23:23:42.119Z,4.03
2023-06-10T23:26:46.339Z,3.90
2023-06-10T23:32:59.916Z,3.78
2023-06-10T23:36:04.516Z,4.20
2023-06-10T23:39:08.641Z,4.18
2023-06-10T23:42:12.782Z,4.70
2023-06-10T23:45:17.098Z,4.95
2023-06-10T23:48:22.709Z,4.20
2023-06-10T23:51:26.754Z,3.97
2023-06-10T23:54:30.979Z,3.42
2023-06-10T23:57:35.106Z,3.83
